Time;durP1;ratioP1;P1;durP2;ratioP2;P2;SDS_P1;SDS_P2;PMS_P1;PMS_P2;Temp;Humidity;BMP_temperature;BMP_pressure;BME280_temperature;BME280_humidity;BME280_pressure;Samples;Min_cycle;Max_cycle;Signal;HPM_P1;HPM_P2
2023/08/01 00:01:05;;;;;;;4.40;2.30;;;;;;;15.65;73.63;96075.19;107772;1280;22524;-74
2023/08/01 00:03:36;;;;;;;3.20;2.30;;;;;;;15.68;73.85;96071.84;107807;1283;22579;-74
2023/08/01 00:06:07;;;;;;;3.90;2.00;;;;;;;15.67;73.76;96071.37;107781;1285;24224;-74
2023/08/01 00:08:38;;;;;;;3.00;2.20;;;;;;;15.69;73.87;96068.06;107812;1283;22523;-74
2023/08/01 00:11:11;;;;;;;3.80;2.10;;;;;;;15.70;73.67;96066.42;107788;1280;25386;-74
2023/08/01 00:13:43;;;;;;;3.90;2.20;;;;;;;15.69;73.71;96070.77;107798;1283;22553;-74
2023/08/01 00:16:14;;;;;;;5.50;2.20;;;;;;;15.72;73.76;96070.55;107795;1282;22534;-74
2023/08/01 00:18:44;;;;;;;3.60;1.90;;;;;;;15.75;73.80;96068.83;107750;1283;22534;-75
2023/08/01 00:21:15;;;;;;;4.70;2.20;;;;;;;15.76;73.64;96066.50;107773;1285;25418;-74
2023/08/01 00:23:46;;;;;;;3.90;2.80;;;;;;;15.76;73.56;96061.48;107788;1280;22540;-74
2023/08/01 00:26:17;;;;;;;3.60;2.30;;;;;;;15.75;73.63;96066.23;107786;1284;22598;-74
2023/08/01 00:28:48;;;;;;;3.60;2.10;;;;;;;15.75;73.66;96057.29;107798;1282;22554;-74
2023/08/01 00:31:19;;;;;;;3.20;2.50;;;;;;;15.77;73.71;96054.62;107787;1264;22527;-74
2023/08/01 00:33:50;;;;;;;4.00;2.20;;;;;;;15.76;73.78;96050.84;107804;1284;25318;-74
2023/08/01 00:36:21;;;;;;;5.00;2.70;;;;;;;15.72;73.80;96044.06;107772;1285;22577;-74
2023/08/01 00:38:52;;;;;;;6.50;2.30;;;;;;;15.67;73.96;96041.98;107763;1285;22608;-74
2023/08/01 00:41:23;;;;;;;4.90;2.80;;;;;;;15.62;74.14;96035.13;107803;1280;22530;-74
2023/08/01 00:43:54;;;;;;;4.20;2.70;;;;;;;15.59;74.39;96032.80;107829;1280;22549;-74
2023/08/01 00:46:26;;;;;;;3.80;2.30;;;;;;;15.57;74.51;96027.21;107813;1284;22550;-74
2023/08/01 00:49:00;;;;;;;4.00;2.70;;;;;;;15.53;74.47;96029.57;107782;1284;24243;-74
2023/08/01 00:51:32;;;;;;;4.30;2.70;;;;;;;15.51;74.78;96025.90;107831;1284;22530;-74
2023/08/01 00:54:04;;;;;;;5.10;2.80;;;;;;;15.52;74.93;96023.57;107789;1285;24278;-74
2023/08/01 00:56:35;;;;;;;6.00;3.10;;;;;;;15.56;75.06;96024.10;107782;1277;24459;-74
2023/08/01 00:59:07;;;;;;;5.50;3.10;;;;;;;15.56;75.04;96017.77;107779;1281;25392;-74
2023/08/01 01:01:38;;;;;;;3.60;2.50;;;;;;;15.53;75.04;96016.84;107798;1284;22537;-74
2023/08/01 01:04:10;;;;;;;3.50;2.80;;;;;;;15.52;75.16;96018.08;107787;1284;22535;-74
2023/08/01 01:06:46;;;;;;;3.20;2.40;;;;;;;15.48;75.26;96010.35;107806;1280;25380;-74
2023/08/01 01:09:21;;;;;;;4.50;2.90;;;;;;;15.43;75.38;96001.35;107790;1283;22685;-74
2023/08/01 01:11:52;;;;;;;4.10;2.80;;;;;;;15.42;75.46;95992.35;107819;1285;22529;-74
2023/08/01 01:14:23;;;;;;;5.10;2.90;;;;;;;15.42;75.54;95998.31;107821;1285;22557;-74
2023/08/01 01:16:55;;;;;;;6.60;3.40;;;;;;;15.43;75.62;95988.89;107832;1285;22534;-74
2023/08/01 01:19:27;;;;;;;3.90;2.90;;;;;;;15.47;75.72;95984.30;107801;1279;22537;-74
2023/08/01 01:21:59;;;;;;;3.80;2.60;;;;;;;15.53;75.93;95985.47;107828;1283;22653;-74
2023/08/01 01:24:31;;;;;;;5.60;3.10;;;;;;;15.64;76.05;95982.36;107824;1279;22538;-74
2023/08/01 01:27:04;;;;;;;4.80;3.10;;;;;;;15.72;75.84;95981.70;107782;1285;23918;-74
2023/08/01 01:29:36;;;;;;;5.80;3.10;;;;;;;15.78;75.66;95975.86;107806;1283;25506;-74
2023/08/01 01:32:10;;;;;;;4.20;3.10;;;;;;;15.78;75.57;95973.81;107814;1284;22525;-74
2023/08/01 01:34:49;;;;;;;6.00;3.50;;;;;;;15.78;75.52;95969.39;107811;1267;24236;-74
2023/08/01 01:37:20;;;;;;;4.50;3.20;;;;;;;15.78;75.54;95967.00;107808;1270;24546;-75
2023/08/01 01:39:51;;;;;;;4.50;3.00;;;;;;;15.77;75.53;95962.67;107798;1284;25485;-75
2023/08/01 01:42:22;;;;;;;3.50;2.80;;;;;;;15.80;75.61;95959.89;107810;1282;22539;-75
2023/08/01 01:44:53;;;;;;;5.00;2.80;;;;;;;15.85;75.55;95957.77;107802;1284;22544;-75
2023/08/01 01:47:24;;;;;;;6.90;3.30;;;;;;;15.86;75.43;95954.67;107785;1283;22534;-75
2023/08/01 01:49:55;;;;;;;4.30;3.00;;;;;;;15.88;75.47;95948.05;107796;1284;22607;-75
2023/08/01 01:52:27;;;;;;;5.50;3.10;;;;;;;15.91;75.44;95941.65;107797;1285;22561;-75
2023/08/01 01:54:58;;;;;;;3.90;2.80;;;;;;;15.92;75.43;95936.68;107798;1285;22578;-76
2023/08/01 01:57:29;;;;;;;5.80;2.90;;;;;;;15.96;75.42;95927.02;107795;1278;22543;-75
2023/08/01 02:00:00;;;;;;;3.90;2.80;;;;;;;16.05;75.53;95926.34;107786;1284;25435;-75
2023/08/01 02:02:31;;;;;;;5.50;2.80;;;;;;;16.11;75.35;95924.95;107795;1277;22571;-75
2023/08/01 02:05:03;;;;;;;3.90;2.60;;;;;;;16.14;75.22;95922.65;107817;1284;22527;-75
2023/08/01 02:07:34;;;;;;;3.10;2.60;;;;;;;16.20;75.16;95919.20;107836;1277;24393;-76
2023/08/01 02:10:07;;;;;;;4.70;2.70;;;;;;;16.27;75.06;95916.09;107804;1284;22527;-75
2023/08/01 02:12:39;;;;;;;4.80;3.00;;;;;;;16.30;74.90;95915.42;107861;1280;25239;-75
2023/08/01 02:15:11;;;;;;;5.70;2.70;;;;;;;16.32;74.80;95918.45;107804;1285;22535;-76
2023/08/01 02:17:42;;;;;;;3.00;2.60;;;;;;;16.33;74.66;95921.55;107826;1285;22528;-75
2023/08/01 02:20:14;;;;;;;4.40;3.20;;;;;;;16.36;74.62;95913.34;107752;1285;22541;-76
2023/08/01 02:22:45;;;;;;;4.10;2.70;;;;;;;16.40;74.49;95908.88;107836;1278;22550;-76
2023/08/01 02:25:16;;;;;;;4.40;3.10;;;;;;;16.43;74.39;95909.19;107811;1277;22733;-76
2023/08/01 02:27:49;;;;;;;3.90;3.00;;;;;;;16.44;74.28;95909.14;107921;1283;22986;-75
2023/08/01 02:30:20;;;;;;;3.10;2.50;;;;;;;16.41;74.09;95907.52;107885;1285;22629;-75
2023/08/01 02:32:51;;;;;;;3.20;2.30;;;;;;;16.36;74.11;95900.02;107954;1277;22563;-75
2023/08/01 02:35:23;;;;;;;4.90;3.30;;;;;;;16.31;74.16;95894.36;107922;1280;22536;-75
2023/08/01 02:37:54;;;;;;;3.30;2.90;;;;;;;16.30;74.21;95889.75;107916;1285;22526;-75
2023/08/01 02:40:26;;;;;;;3.90;3.00;;;;;;;16.30;74.23;95889.27;107856;1285;22564;-75
2023/08/01 02:42:57;;;;;;;3.90;2.90;;;;;;;16.32;74.26;95893.38;107852;1285;22530;-76
2023/08/01 02:45:29;;;;;;;4.80;3.00;;;;;;;16.31;74.16;95888.45;107823;1277;22526;-75
2023/08/01 02:48:00;;;;;;;5.50;2.70;;;;;;;16.27;74.14;95885.29;107812;1283;22529;-75
2023/08/01 02:50:31;;;;;;;4.20;2.60;;;;;;;16.23;74.13;95883.65;107778;1277;22526;-75
2023/08/01 02:53:04;;;;;;;4.10;2.80;;;;;;;16.22;74.07;95884.05;107792;1283;22537;-75
2023/08/01 02:55:35;;;;;;;4.20;3.00;;;;;;;16.19;74.09;95878.98;107804;1284;22871;-73
2023/08/01 02:58:06;;;;;;;5.70;3.20;;;;;;;16.18;74.18;95875.27;107795;1285;23074;-73
2023/08/01 03:00:40;;;;;;;3.50;2.80;;;;;;;16.17;74.19;95874.92;107779;1284;22605;-73
2023/08/01 03:03:12;;;;;;;4.40;3.50;;;;;;;16.15;74.13;95873.95;107803;1279;23230;-73
2023/08/01 03:05:43;;;;;;;4.30;2.80;;;;;;;16.13;74.15;95874.79;107788;1285;25374;-73
2023/08/01 03:08:14;;;;;;;5.20;3.00;;;;;;;16.08;74.20;95870.83;107771;1285;25871;-75
2023/08/01 03:10:46;;;;;;;5.10;2.70;;;;;;;16.03;74.24;95871.98;107784;1280;22525;-75
2023/08/01 03:13:17;;;;;;;4.80;2.70;;;;;;;16.02;74.31;95861.37;107815;1285;22903;-75
2023/08/01 03:15:48;;;;;;;5.40;2.80;;;;;;;16.02;74.38;95857.34;107813;1279;22540;-75
2023/08/01 03:18:19;;;;;;;3.60;2.80;;;;;;;16.01;74.32;95850.72;107790;1284;22531;-75
2023/08/01 03:20:51;;;;;;;5.10;3.00;;;;;;;15.98;74.46;95852.63;107734;1283;25123;-75
2023/08/01 03:23:22;;;;;;;5.30;2.90;;;;;;;15.96;74.42;95854.84;107819;1277;22539;-75
2023/08/01 03:25:53;;;;;;;3.70;2.60;;;;;;;15.92;74.54;95859.84;107788;1285;22619;-75
2023/08/01 03:28:25;;;;;;;3.90;2.80;;;;;;;15.91;74.61;95860.02;107784;1285;22603;-75
2023/08/01 03:30:56;;;;;;;4.70;2.90;;;;;;;15.90;74.70;95854.96;107782;1280;22622;-75
2023/08/01 03:33:27;;;;;;;5.10;2.80;;;;;;;15.91;74.69;95854.73;107813;1277;22530;-75
2023/08/01 03:35:58;;;;;;;4.60;3.00;;;;;;;15.92;74.79;95855.04;107783;1285;22562;-75
2023/08/01 03:38:29;;;;;;;7.70;3.00;;;;;;;15.96;74.81;95856.15;107805;1283;22575;-75
2023/08/01 03:41:01;;;;;;;2.80;2.60;;;;;;;15.98;74.86;95859.50;107806;1285;25304;-75
2023/08/01 03:43:32;;;;;;;6.10;2.70;;;;;;;15.99;74.81;95860.52;107805;1285;22545;-75
2023/08/01 03:46:03;;;;;;;2.80;2.50;;;;;;;15.99;74.85;95857.23;107774;1285;22538;-75
2023/08/01 03:48:34;;;;;;;5.40;3.00;;;;;;;16.01;74.86;95855.00;107786;1285;25345;-75
2023/08/01 03:51:05;;;;;;;3.70;2.70;;;;;;;16.01;74.81;95851.18;107784;1283;22601;-75
2023/08/01 03:53:36;;;;;;;5.40;3.00;;;;;;;16.01;74.90;95850.02;107787;1285;25302;-75
2023/08/01 03:56:07;;;;;;;3.60;3.00;;;;;;;16.01;74.97;95849.42;107778;1283;25358;-75
2023/08/01 03:58:38;;;;;;;3.50;2.90;;;;;;;16.02;75.22;95851.46;107806;1285;25380;-75
2023/08/01 04:01:11;;;;;;;5.20;3.00;;;;;;;16.06;75.20;95849.89;107793;1284;22523;-76
2023/08/01 04:03:42;;;;;;;4.70;2.70;;;;;;;16.08;75.25;95843.95;107847;1278;22538;-75
2023/08/01 04:06:15;;;;;;;5.20;3.20;;;;;;;16.13;75.26;95843.33;107814;1285;22524;-75
2023/08/01 04:08:46;;;;;;;3.40;3.10;;;;;;;16.17;75.33;95840.77;107796;1285;22535;-75
2023/08/01 04:11:17;;;;;;;3.60;2.70;;;;;;;16.23;75.30;95835.48;107796;1285;22535;-75
2023/08/01 04:13:49;;;;;;;4.50;3.00;;;;;;;16.30;75.22;95836.48;107811;1285;22613;-76
2023/08/01 04:16:20;;;;;;;4.70;2.80;;;;;;;16.38;75.03;95836.65;107779;1285;22531;-76
2023/08/01 04:18:51;;;;;;;5.50;3.00;;;;;;;16.39;74.99;95836.63;107774;1285;24210;-75
2023/08/01 04:21:22;;;;;;;4.20;3.10;;;;;;;16.39;74.86;95837.83;107816;1277;22538;-75
2023/08/01 04:23:53;;;;;;;5.40;3.20;;;;;;;16.37;74.83;95834.42;107772;1285;22537;-75
2023/08/01 04:26:24;;;;;;;7.50;3.40;;;;;;;16.34;74.79;95835.08;107764;1285;22571;-75
2023/08/01 04:28:56;;;;;;;3.50;2.70;;;;;;;16.33;74.87;95837.21;107792;1284;22533;-75
2023/08/01 04:31:26;;;;;;;4.90;2.90;;;;;;;16.35;74.89;95838.46;107822;1279;22550;-75
2023/08/01 04:33:57;;;;;;;4.20;3.10;;;;;;;16.39;75.12;95832.73;107783;1285;25283;-75
2023/08/01 04:36:28;;;;;;;3.60;2.50;;;;;;;16.49;75.21;95830.30;107802;1284;22543;-75
2023/08/01 04:38:59;;;;;;;3.50;2.40;;;;;;;16.57;75.01;95821.50;107816;1284;22545;-76
2023/08/01 04:41:31;;;;;;;3.40;2.70;;;;;;;16.62;75.18;95822.13;107773;1277;22576;-75
2023/08/01 04:44:02;;;;;;;4.70;3.10;;;;;;;16.75;75.20;95819.09;107787;1285;24260;-75
2023/08/01 04:46:33;;;;;;;3.50;2.80;;;;;;;16.90;75.20;95819.31;107672;1284;150927;-75
2023/08/01 04:49:04;;;;;;;3.60;2.60;;;;;;;17.00;74.92;95821.14;107807;1284;22665;-75
2023/08/01 04:51:36;;;;;;;4.20;2.90;;;;;;;17.15;74.81;95818.75;107782;1285;24491;-75
2023/08/01 04:54:07;;;;;;;3.30;2.60;;;;;;;17.30;74.44;95817.18;107799;1284;22559;-75
2023/08/01 04:56:39;;;;;;;4.00;2.70;;;;;;;17.45;74.22;95811.77;107784;1285;25483;-76
2023/08/01 04:59:10;;;;;;;3.80;2.60;;;;;;;17.44;73.81;95808.60;107761;1262;22531;-75
2023/08/01 05:01:42;;;;;;;4.30;2.90;;;;;;;17.68;74.14;95802.77;107736;1285;22962;-75
2023/08/01 05:04:13;;;;;;;4.20;2.40;;;;;;;17.63;72.95;95799.00;107795;1280;25429;-76
2023/08/01 05:06:44;;;;;;;4.30;3.00;;;;;;;17.40;72.90;95796.33;107796;1283;22531;-75
2023/08/01 05:09:15;;;;;;;4.20;2.50;;;;;;;17.69;74.46;95795.33;107755;1277;22556;-75
2023/08/01 05:11:46;;;;;;;2.70;2.40;;;;;;;18.64;74.30;95798.84;107805;1284;23176;-75
2023/08/01 05:14:17;;;;;;;3.00;2.50;;;;;;;19.57;72.57;95800.35;107805;1278;22530;-75
2023/08/01 05:16:49;;;;;;;3.60;2.40;;;;;;;19.98;70.06;95799.40;107797;1285;22532;-75
2023/08/01 05:19:21;;;;;;;3.70;2.60;;;;;;;19.85;68.43;95799.95;107757;1284;22557;-75
2023/08/01 05:21:52;;;;;;;4.00;2.10;;;;;;;19.60;68.03;95796.73;107809;1283;25370;-76
2023/08/01 05:24:23;;;;;;;4.30;2.50;;;;;;;19.55;68.61;95799.15;107805;1284;24284;-76
2023/08/01 05:26:55;;;;;;;4.50;2.50;;;;;;;20.02;69.55;95793.86;107797;1284;25258;-76
2023/08/01 05:29:25;;;;;;;4.70;2.40;;;;;;;21.22;70.22;95782.32;107773;1283;25457;-76
2023/08/01 05:31:56;;;;;;;3.50;2.20;;;;;;;22.64;68.28;95780.41;107797;1285;25492;-75
2023/08/01 05:34:27;;;;;;;3.20;2.20;;;;;;;23.38;64.82;95777.59;107814;1285;22531;-75
2023/08/01 05:36:58;;;;;;;3.80;2.50;;;;;;;23.47;64.25;95777.94;107775;1278;24156;-76
2023/08/01 05:39:30;;;;;;;3.30;2.10;;;;;;;24.31;63.94;95777.09;107767;1283;26539;-76
2023/08/01 05:42:01;;;;;;;5.00;2.40;;;;;;;25.46;62.42;95771.85;107802;1285;22529;-76
2023/08/01 05:44:32;;;;;;;3.20;2.30;;;;;;;26.31;60.86;95769.95;107808;1285;22538;-76
2023/08/01 05:47:03;;;;;;;3.70;2.40;;;;;;;26.90;58.37;95767.04;107794;1285;22537;-76
2023/08/01 05:49:35;;;;;;;2.70;1.90;;;;;;;27.32;57.23;95769.30;107772;1285;22534;-76
2023/08/01 05:52:07;;;;;;;6.80;2.40;;;;;;;27.82;55.84;95775.06;107795;1285;25523;-76
2023/08/01 05:54:38;;;;;;;2.70;2.10;;;;;;;27.99;53.95;95778.09;107824;1283;22612;-76
2023/08/01 05:57:13;;;;;;;3.30;2.40;;;;;;;28.41;53.04;95778.56;107804;1285;24210;-75
2023/08/01 05:59:44;;;;;;;3.10;2.10;;;;;;;28.43;51.03;95776.18;107792;1284;27713;-76
2023/08/01 06:02:15;;;;;;;2.90;2.20;;;;;;;27.65;50.24;95775.58;107803;1285;24380;-76
2023/08/01 06:04:46;;;;;;;3.60;2.00;;;;;;;27.65;51.83;95773.25;107780;1285;22520;-75
2023/08/01 06:07:22;;;;;;;3.40;2.30;;;;;;;28.31;51.16;95773.27;107793;1285;22531;-76
2023/08/01 06:09:54;;;;;;;4.90;2.60;;;;;;;28.02;49.76;95774.23;107770;1285;22563;-76
2023/08/01 06:12:25;;;;;;;3.20;2.40;;;;;;;26.87;49.73;95767.13;107821;1285;22574;-76
2023/08/01 06:14:56;;;;;;;3.00;2.50;;;;;;;25.79;50.34;95772.69;107794;1285;24265;-76
2023/08/01 06:17:27;;;;;;;5.10;2.60;;;;;;;24.94;51.16;95769.30;107804;1285;22641;-76
2023/08/01 06:19:58;;;;;;;4.20;2.60;;;;;;;23.99;51.70;95774.89;107739;1285;22529;-75
2023/08/01 06:22:29;;;;;;;4.80;2.60;;;;;;;23.07;52.55;95767.39;107796;1285;22560;-76
2023/08/01 06:25:00;;;;;;;2.90;2.70;;;;;;;22.31;53.70;95765.52;107803;1283;22530;-76
2023/08/01 06:27:31;;;;;;;3.80;2.60;;;;;;;22.08;54.83;95765.02;107828;1285;22557;-76
2023/08/01 06:30:02;;;;;;;3.10;2.50;;;;;;;21.75;55.35;95765.54;107742;1285;22776;-76
2023/08/01 06:32:33;;;;;;;4.30;2.70;;;;;;;21.39;55.94;95767.46;107767;1285;23104;-75
2023/08/01 06:35:05;;;;;;;5.10;2.70;;;;;;;21.05;56.74;95765.42;107764;1279;22637;-76
2023/08/01 06:37:37;;;;;;;3.20;2.50;;;;;;;20.75;57.53;95764.55;107834;1285;26497;-76
2023/08/01 06:40:13;;;;;;;5.50;2.90;;;;;;;20.62;58.55;95760.91;107782;1285;22545;-76
2023/08/01 06:42:44;;;;;;;5.10;2.40;;;;;;;20.61;59.19;95757.44;107868;1280;22585;-76
2023/08/01 06:45:17;;;;;;;3.30;2.60;;;;;;;20.61;59.64;95758.52;107811;1283;22538;-76
2023/08/01 06:47:48;;;;;;;5.80;2.80;;;;;;;20.57;60.05;95752.85;107771;1285;22561;-75
2023/08/01 06:50:20;;;;;;;4.60;3.00;;;;;;;20.48;60.66;95751.02;107784;1285;22535;-76
2023/08/01 06:52:52;;;;;;;4.10;2.90;;;;;;;20.42;61.13;95745.77;107811;1285;22547;-76
2023/08/01 06:55:24;;;;;;;5.30;2.30;;;;;;;20.32;61.47;95751.45;107812;1285;22524;-75
2023/08/01 06:57:55;;;;;;;6.30;2.80;;;;;;;20.18;61.69;95750.91;107812;1285;22533;-76
2023/08/01 07:00:26;;;;;;;5.30;2.90;;;;;;;20.07;62.12;95752.20;107798;1285;22531;-76
2023/08/01 07:02:58;;;;;;;3.30;2.40;;;;;;;19.97;62.36;95753.56;107783;1278;22535;-75
2023/08/01 07:05:29;;;;;;;3.00;2.40;;;;;;;19.89;61.99;95753.84;107782;1285;22549;-76
2023/08/01 07:08:01;;;;;;;4.40;2.40;;;;;;;19.83;61.70;95749.41;107785;1285;22560;-75
2023/08/01 07:10:35;;;;;;;4.70;2.60;;;;;;;19.75;61.85;95749.75;107772;1285;22559;-75
2023/08/01 07:13:07;;;;;;;3.00;2.30;;;;;;;19.71;61.84;95746.92;107808;1285;25274;-75
2023/08/01 07:15:38;;;;;;;4.40;2.30;;;;;;;19.71;61.97;95744.15;107782;1285;22532;-76
2023/08/01 07:18:09;;;;;;;3.00;2.40;;;;;;;19.73;62.33;95746.56;107761;1285;22536;-75
2023/08/01 07:20:41;;;;;;;4.20;2.30;;;;;;;19.72;62.39;95747.86;107711;1285;22529;-75
2023/08/01 07:23:12;;;;;;;3.80;2.20;;;;;;;19.68;62.63;95747.92;107783;1285;25992;-76
2023/08/01 07:25:44;;;;;;;3.90;2.50;;;;;;;19.66;63.02;95743.36;107777;1283;22594;-76
2023/08/01 07:28:15;;;;;;;5.50;2.40;;;;;;;19.62;63.25;95751.13;107788;1285;22538;-76
2023/08/01 07:30:47;;;;;;;4.00;2.50;;;;;;;19.57;63.76;95751.95;107759;1285;22561;-76
2023/08/01 07:33:18;;;;;;;3.70;2.20;;;;;;;19.54;64.17;95755.50;107795;1283;25290;-75
2023/08/01 07:35:50;;;;;;;5.10;2.70;;;;;;;19.51;64.52;95759.42;107787;1285;22536;-76
2023/08/01 07:38:21;;;;;;;2.90;2.60;;;;;;;19.48;64.87;95751.92;107860;1283;22670;-75
2023/08/01 07:40:53;;;;;;;4.50;3.00;;;;;;;19.41;65.09;95758.78;107749;1285;25248;-75
2023/08/01 07:43:26;;;;;;;3.50;2.60;;;;;;;19.32;65.48;95749.48;107775;1285;22571;-75
2023/08/01 07:46:00;;;;;;;3.30;2.30;;;;;;;19.28;66.21;95737.86;107788;1285;22534;-75
2023/08/01 07:48:32;;;;;;;3.40;2.90;;;;;;;19.26;66.59;95741.05;107793;1282;22551;-76
2023/08/01 07:51:05;;;;;;;4.50;3.20;;;;;;;19.34;67.24;95733.62;107769;1284;22531;-76
2023/08/01 07:53:36;;;;;;;3.70;2.70;;;;;;;19.55;67.75;95733.78;107803;1285;22537;-76
2023/08/01 07:56:08;;;;;;;4.20;2.70;;;;;;;20.04;68.26;95736.77;107802;1285;22559;-75
2023/08/01 07:58:40;;;;;;;4.30;2.70;;;;;;;20.39;67.86;95736.63;107826;1285;25132;-76
2023/08/01 08:01:11;;;;;;;2.90;2.60;;;;;;;20.50;66.67;95732.05;107796;1277;22578;-76
2023/08/01 08:03:42;;;;;;;2.90;2.50;;;;;;;20.49;66.16;95729.02;107813;1285;25407;-75
2023/08/01 08:06:13;;;;;;;2.70;2.10;;;;;;;20.32;65.74;95722.83;107812;1279;22485;-75
2023/08/01 08:08:45;;;;;;;3.40;2.60;;;;;;;20.04;65.48;95728.38;107830;1285;22531;-76
2023/08/01 08:11:17;;;;;;;4.20;3.00;;;;;;;19.76;65.66;95728.86;107798;1285;22527;-76
2023/08/01 08:13:48;;;;;;;3.20;2.40;;;;;;;19.63;66.18;95726.40;107806;1285;25361;-75
2023/08/01 08:16:20;;;;;;;4.30;2.40;;;;;;;19.53;66.29;95722.60;107790;1285;22575;-75
2023/08/01 08:18:51;;;;;;;3.40;2.70;;;;;;;19.45;66.53;95725.70;107784;1285;22632;-76
2023/08/01 08:21:24;;;;;;;3.90;2.20;;;;;;;19.42;66.77;95725.30;107806;1283;24412;-75
2023/08/01 08:23:55;;;;;;;5.90;3.00;;;;;;;19.46;67.16;95725.62;107802;1280;25397;-76
2023/08/01 08:26:26;;;;;;;3.10;2.50;;;;;;;19.52;67.47;95719.12;107791;1285;22553;-75
2023/08/01 08:28:58;;;;;;;6.00;2.90;;;;;;;19.53;67.14;95713.23;107820;1284;24395;-76
2023/08/01 08:31:30;;;;;;;5.40;3.00;;;;;;;19.50;67.16;95715.46;107768;1285;24231;-76
2023/08/01 08:34:02;;;;;;;3.50;2.70;;;;;;;19.49;67.37;95716.38;107825;1285;22527;-75
2023/08/01 08:36:33;;;;;;;4.00;3.00;;;;;;;19.49;67.38;95711.84;107794;1285;22566;-76
2023/08/01 08:39:05;;;;;;;4.10;2.60;;;;;;;19.49;67.79;95720.45;107801;1280;23836;-75
2023/08/01 08:41:43;;;;;;;3.30;2.30;;;;;;;19.55;67.98;95720.52;107821;1285;22534;-75
2023/08/01 08:44:20;;;;;;;3.70;2.90;;;;;;;19.49;67.53;95719.98;107863;1280;22539;-76
2023/08/01 08:46:54;;;;;;;4.20;2.90;;;;;;;19.43;67.79;95710.59;107904;1278;22537;-76
2023/08/01 08:49:27;;;;;;;5.80;3.00;;;;;;;19.34;68.07;95709.88;107811;1285;22621;-75
2023/08/01 08:52:00;;;;;;;3.40;2.70;;;;;;;19.23;68.39;95709.52;107827;1282;22538;-75
2023/08/01 08:54:34;;;;;;;5.20;2.80;;;;;;;19.17;68.65;95705.52;107802;1279;22529;-75
2023/08/01 08:57:08;;;;;;;4.60;3.30;;;;;;;19.12;69.06;95702.62;107870;1285;22546;-75
2023/08/01 08:59:42;;;;;;;3.70;3.30;;;;;;;19.12;69.57;95705.08;107865;1285;25250;-76
2023/08/01 09:02:15;;;;;;;5.10;2.70;;;;;;;19.13;69.72;95706.48;107789;1285;22527;-75
2023/08/01 09:04:47;;;;;;;5.10;3.20;;;;;;;19.12;69.95;95700.02;107823;1284;22534;-75
2023/08/01 09:07:24;;;;;;;3.20;2.80;;;;;;;19.15;70.15;95696.33;107820;1285;24415;-75
2023/08/01 09:09:56;;;;;;;3.50;2.90;;;;;;;19.23;70.02;95695.48;107803;1284;22562;-75
2023/08/01 09:12:28;;;;;;;4.80;2.90;;;;;;;19.32;70.12;95684.89;107812;1285;22534;-75
2023/08/01 09:15:00;;;;;;;6.70;3.30;;;;;;;19.43;70.01;95683.55;107820;1285;22537;-76
2023/08/01 09:17:32;;;;;;;6.00;3.60;;;;;;;19.53;70.21;95680.29;107799;1285;23815;-75
2023/08/01 09:20:09;;;;;;;4.20;3.50;;;;;;;19.63;70.18;95675.64;107764;1277;22564;-76
2023/08/01 09:22:48;;;;;;;4.40;3.50;;;;;;;19.73;70.19;95672.11;107869;1283;22541;-75
2023/08/01 09:25:19;;;;;;;4.00;3.30;;;;;;;19.83;70.48;95673.56;107807;1278;22518;-76
2023/08/01 09:27:54;;;;;;;4.10;3.20;;;;;;;19.95;70.16;95663.76;107821;1280;22542;-75
2023/08/01 09:30:26;;;;;;;3.80;2.90;;;;;;;20.04;69.81;95668.43;107806;1285;22940;-75
2023/08/01 09:32:58;;;;;;;4.20;3.20;;;;;;;20.13;70.04;95668.20;107789;1284;22537;-75
2023/08/01 09:35:39;;;;;;;5.30;3.00;;;;;;;20.25;70.34;95667.88;107798;1285;22573;-75
2023/08/01 09:38:10;;;;;;;4.10;2.80;;;;;;;20.32;69.70;95664.85;107859;1285;24282;-75
2023/08/01 09:40:43;;;;;;;2.90;2.40;;;;;;;20.34;68.91;95666.02;107775;1285;22545;-75
2023/08/01 09:43:15;;;;;;;3.40;2.70;;;;;;;20.39;68.98;95666.08;107927;1283;25503;-75
2023/08/01 09:45:56;;;;;;;3.30;2.50;;;;;;;20.42;68.51;95665.40;107862;1280;22527;-75
2023/08/01 09:48:29;;;;;;;4.10;2.60;;;;;;;20.46;68.78;95665.07;107853;1285;25344;-75
2023/08/01 09:51:11;;;;;;;3.60;2.70;;;;;;;20.49;68.16;95666.95;107782;1280;25229;-75
2023/08/01 09:53:53;;;;;;;3.10;2.80;;;;;;;20.52;68.46;95670.06;107859;1285;22546;-75
2023/08/01 09:56:27;;;;;;;6.20;3.00;;;;;;;20.59;68.72;95676.17;107810;1285;22537;-75
2023/08/01 09:59:00;;;;;;;4.80;2.70;;;;;;;20.62;68.42;95668.89;107731;1280;22532;-75
2023/08/01 10:01:34;;;;;;;4.10;2.90;;;;;;;20.67;68.29;95663.95;107793;1285;22556;-75
2023/08/01 10:04:08;;;;;;;3.40;2.60;;;;;;;20.71;68.14;95657.55;107824;1280;24505;-75
2023/08/01 10:06:43;;;;;;;5.70;3.40;;;;;;;20.76;68.24;95654.13;107800;1285;22606;-75
2023/08/01 10:09:15;;;;;;;5.90;3.10;;;;;;;20.82;68.20;95649.49;107737;1285;24235;-75
2023/08/01 10:11:47;;;;;;;5.40;3.30;;;;;;;20.86;68.18;95644.40;107777;1285;22619;-75
2023/08/01 10:14:22;;;;;;;4.40;3.20;;;;;;;20.91;68.43;95641.22;107726;1285;24394;-75
2023/08/01 10:16:55;;;;;;;5.00;3.30;;;;;;;20.98;68.37;95637.38;107814;1285;22550;-75
2023/08/01 10:19:28;;;;;;;3.80;3.00;;;;;;;21.03;68.48;95634.19;107691;1278;25473;-75
2023/08/01 10:22:01;;;;;;;4.20;3.30;;;;;;;21.05;68.39;95636.30;107811;1284;22541;-75
2023/08/01 10:24:35;;;;;;;7.00;3.50;;;;;;;21.04;68.73;95633.98;107810;1285;22563;-75
2023/08/01 10:27:19;;;;;;;4.50;3.60;;;;;;;21.06;68.78;95629.22;107851;1280;24242;-75
2023/08/01 10:30:01;;;;;;;5.00;4.00;;;;;;;21.07;68.97;95625.52;107832;1285;22530;-75
2023/08/01 10:32:35;;;;;;;5.60;3.80;;;;;;;21.09;69.12;95617.08;107833;1285;22560;-75
2023/08/01 10:35:09;;;;;;;4.90;3.60;;;;;;;21.10;69.21;95605.83;107761;1285;22526;-75
2023/08/01 10:37:47;;;;;;;5.10;3.30;;;;;;;21.08;69.16;95599.58;107810;1284;22543;-75
2023/08/01 10:40:18;;;;;;;6.70;3.30;;;;;;;21.04;69.25;95596.01;107686;1285;22661;-75
2023/08/01 10:42:50;;;;;;;5.10;3.50;;;;;;;20.97;69.37;95593.87;107765;1285;22669;-74
2023/08/01 10:45:29;;;;;;;5.70;3.70;;;;;;;20.87;69.33;95600.45;107820;1279;22557;-75
2023/08/01 10:48:12;;;;;;;5.40;3.70;;;;;;;20.77;69.66;95608.96;107824;1283;22556;-75
2023/08/01 10:50:44;;;;;;;6.10;3.80;;;;;;;20.67;69.88;95614.85;107748;1278;25433;-75
2023/08/01 10:53:15;;;;;;;4.50;3.70;;;;;;;20.59;69.94;95615.92;107745;1285;22530;-75
2023/08/01 10:55:48;;;;;;;4.90;3.80;;;;;;;20.54;70.37;95618.55;107758;1278;22573;-75
2023/08/01 10:58:20;;;;;;;5.20;3.90;;;;;;;20.50;70.96;95618.03;107782;1280;22534;-76
2023/08/01 11:01:00;;;;;;;4.50;3.70;;;;;;;20.50;71.30;95611.72;107787;1278;22654;-75
2023/08/01 11:03:39;;;;;;;4.80;3.70;;;;;;;20.52;71.76;95605.96;107887;1285;24278;-76
2023/08/01 11:06:12;;;;;;;4.10;3.30;;;;;;;20.55;72.14;95600.55;107734;1285;22539;-76
2023/08/01 11:08:44;;;;;;;4.20;3.50;;;;;;;20.57;72.66;95599.12;107802;1285;22610;-76
2023/08/01 11:11:16;;;;;;;4.20;3.40;;;;;;;20.56;72.64;95601.20;107783;1285;22534;-76
2023/08/01 11:13:56;;;;;;;4.90;3.80;;;;;;;20.59;73.46;95601.14;107783;1281;22560;-76
2023/08/01 11:16:28;;;;;;;5.80;3.80;;;;;;;20.60;74.41;95607.23;107796;1285;22540;-76
2023/08/01 11:18:59;;;;;;;4.60;3.70;;;;;;;20.56;74.45;95607.65;107750;1277;22607;-75
2023/08/01 11:21:31;;;;;;;5.80;3.50;;;;;;;20.49;74.13;95610.26;107734;1285;22559;-75
2023/08/01 11:24:07;;;;;;;5.50;3.40;;;;;;;20.44;74.07;95614.28;107777;1285;22540;-75
2023/08/01 11:26:41;;;;;;;7.60;3.80;;;;;;;20.39;73.94;95614.92;107750;1285;22536;-76
2023/08/01 11:29:13;;;;;;;5.20;4.10;;;;;;;20.35;74.78;95610.35;107797;1285;22528;-76
2023/08/01 11:31:55;;;;;;;5.20;3.90;;;;;;;20.34;75.64;95612.65;107758;1284;24268;-76
2023/08/01 11:34:27;;;;;;;4.40;3.30;;;;;;;20.32;75.66;95606.02;107784;1285;23048;-76
2023/08/01 11:37:00;;;;;;;4.90;3.70;;;;;;;20.26;75.28;95606.85;107778;1285;22618;-76
2023/08/01 11:39:32;;;;;;;5.90;3.50;;;;;;;20.28;76.08;95601.88;107741;1285;22550;-76
2023/08/01 11:42:03;;;;;;;4.60;3.40;;;;;;;20.34;76.50;95599.04;107805;1280;24385;-76
2023/08/01 11:44:34;;;;;;;4.20;3.40;;;;;;;20.40;76.82;95601.97;107776;1279;22529;-76
2023/08/01 11:47:11;;;;;;;6.40;3.80;;;;;;;20.42;76.73;95606.10;107801;1285;22584;-76